createdAt,value
2022-08-01T00:00:40.913Z,22.38
2022-08-01T00:03:08.351Z,22.43
2022-08-01T00:05:35.870Z,22.54
2022-08-01T00:08:03.288Z,22.48
2022-08-01T00:10:30.706Z,22.33
2022-08-01T00:12:58.128Z,22.43
2022-08-01T00:15:25.556Z,22.33
2022-08-01T00:17:54.269Z,22.26
2022-08-01T00:20:21.716Z,22.30
2022-08-01T00:22:49.111Z,22.25
2022-08-01T00:25:16.531Z,22.26
2022-08-01T00:27:43.961Z,22.26
2022-08-01T00:30:14.653Z,22.24
2022-08-01T00:32:43.323Z,22.13
2022-08-01T00:35:12.860Z,22.06
2022-08-01T00:37:40.291Z,22.04
2022-08-01T00:40:09.062Z,22.19
2022-08-01T00:42:40.355Z,21.95
2022-08-01T00:45:11.334Z,21.98
2022-08-01T00:47:38.814Z,21.98
2022-08-01T00:50:07.084Z,21.77
2022-08-01T00:52:35.996Z,21.78
2022-08-01T00:55:03.604Z,21.69
2022-08-01T00:58:03.088Z,21.64
2022-08-01T01:00:19.962Z,21.54
2022-08-01T01:02:55.172Z,21.27
2022-08-01T01:05:22.714Z,21.13
2022-08-01T01:07:58.359Z,21.12
2022-08-01T01:10:34.322Z,20.94
2022-08-01T01:13:06.382Z,20.80
2022-08-01T01:15:40.446Z,20.84
2022-08-01T01:18:11.248Z,20.76
2022-08-01T01:20:40.821Z,20.44
2022-08-01T01:23:23.385Z,20.54
2022-08-01T01:26:12.259Z,20.48
2022-08-01T01:29:06.454Z,20.41
2022-08-01T01:31:43.637Z,20.51
2022-08-01T01:34:14.400Z,20.83
2022-08-01T01:36:44.456Z,20.83
2022-08-01T01:39:15.104Z,20.91
2022-08-01T01:41:44.959Z,20.90
2022-08-01T01:44:14.107Z,20.83
2022-08-01T01:46:44.240Z,20.54
2022-08-01T01:49:12.697Z,20.63
2022-08-01T01:51:53.302Z,20.76
2022-08-01T01:54:35.018Z,20.67
2022-08-01T01:57:05.195Z,20.63
2022-08-01T01:59:36.381Z,20.71
2022-08-01T02:02:07.533Z,20.71
2022-08-01T02:04:38.894Z,20.64
2022-08-01T02:07:09.840Z,20.71
2022-08-01T02:09:39.114Z,20.65
2022-08-01T02:12:09.128Z,20.61
2022-08-01T02:14:37.627Z,20.66
2022-08-01T02:17:06.837Z,20.76
2022-08-01T02:19:38.016Z,20.85
2022-08-01T02:22:09.952Z,20.93
2022-08-01T02:24:41.488Z,20.92
2022-08-01T02:27:12.286Z,21.03
2022-08-01T02:29:42.817Z,21.04
2022-08-01T02:32:13.857Z,21.01
2022-08-01T02:34:42.956Z,20.97
2022-08-01T02:37:11.776Z,20.92
2022-08-01T02:39:40.673Z,20.96
2022-08-01T02:42:10.704Z,20.87
2022-08-01T02:44:42.034Z,20.86
2022-08-01T02:47:11.290Z,21.00
2022-08-01T02:49:44.132Z,21.06
2022-08-01T02:52:17.389Z,21.11
2022-08-01T02:54:47.489Z,21.13
2022-08-01T02:57:16.775Z,21.16
2022-08-01T02:59:48.703Z,21.23
2022-08-01T03:02:19.559Z,21.21
2022-08-01T03:04:48.073Z,21.21
2022-08-01T03:07:19.044Z,21.16
2022-08-01T03:09:49.795Z,21.05
2022-08-01T03:12:21.636Z,20.96
2022-08-01T03:14:51.388Z,20.94
2022-08-01T03:17:23.014Z,20.96
2022-08-01T03:19:52.045Z,20.95
2022-08-01T03:22:23.157Z,20.97
2022-08-01T03:24:54.600Z,21.07
2022-08-01T03:27:25.155Z,21.07
2022-08-01T03:29:53.553Z,21.12
2022-08-01T03:32:23.905Z,21.10
2022-08-01T03:34:51.445Z,21.11
2022-08-01T03:37:25.503Z,21.32
2022-08-01T03:39:56.207Z,21.20
2022-08-01T03:42:30.740Z,21.21
2022-08-01T03:45:01.209Z,21.11
2022-08-01T03:47:34.344Z,21.16
2022-08-01T03:50:12.441Z,21.33
2022-08-01T03:52:43.575Z,21.20
2022-08-01T03:55:13.282Z,21.18
2022-08-01T03:57:41.084Z,21.16
2022-08-01T04:00:10.188Z,21.16
2022-08-01T04:02:40.112Z,21.23
2022-08-01T04:05:08.523Z,21.21
2022-08-01T04:07:37.417Z,21.19
2022-08-01T04:10:05.731Z,21.19
2022-08-01T04:12:33.765Z,21.22
2022-08-01T04:15:01.328Z,21.15
2022-08-01T04:17:28.746Z,21.04
2022-08-01T04:19:57.520Z,21.18
2022-08-01T04:22:24.968Z,21.22
2022-08-01T04:24:57.408Z,21.27
2022-08-01T04:27:50.100Z,21.24
2022-08-01T04:30:20.876Z,21.32
2022-08-01T04:32:50.764Z,21.31
2022-08-01T04:35:23.466Z,21.49
2022-08-01T04:38:11.288Z,21.56
2022-08-01T04:40:40.134Z,21.83
2022-08-01T04:43:07.770Z,21.98
2022-08-01T04:45:35.996Z,22.07
2022-08-01T04:48:05.001Z,22.14
2022-08-01T04:50:33.928Z,22.11
2022-08-01T04:53:03.972Z,22.10
2022-08-01T04:55:32.285Z,22.05
2022-08-01T04:57:59.776Z,21.89
2022-08-01T05:00:29.387Z,22.07
2022-08-01T05:02:58.346Z,21.78
2022-08-01T05:05:27.233Z,21.56
2022-08-01T05:07:56.771Z,21.51
2022-08-01T05:10:24.218Z,21.52
2022-08-01T05:12:51.630Z,21.54
2022-08-01T05:15:19.111Z,21.57
2022-08-01T05:17:47.739Z,21.40
2022-08-01T05:20:15.496Z,21.41
2022-08-01T05:22:43.639Z,21.36
2022-08-01T05:25:12.468Z,21.41
2022-08-01T05:27:49.989Z,21.32
2022-08-01T05:30:18.669Z,21.26
2022-08-01T05:32:46.214Z,21.40
2022-08-01T05:35:13.636Z,21.51
2022-08-01T05:37:41.075Z,21.62
2022-08-01T05:40:09.697Z,21.79
2022-08-01T05:42:38.503Z,22.01
2022-08-01T05:45:07.145Z,22.12
2022-08-01T05:47:34.580Z,22.53
2022-08-01T05:50:01.987Z,22.56
2022-08-01T05:52:31.796Z,22.64
2022-08-01T05:54:59.223Z,22.57
2022-08-01T05:57:26.817Z,22.33
2022-08-01T05:59:55.960Z,22.26
2022-08-01T06:02:23.495Z,22.09
2022-08-01T06:04:51.025Z,22.06
2022-08-01T06:07:18.612Z,22.17
2022-08-01T06:09:46.032Z,22.09
2022-08-01T06:12:13.433Z,21.97
2022-08-01T06:14:40.857Z,21.76
2022-08-01T06:17:09.573Z,21.83
2022-08-01T06:19:37.004Z,21.85
2022-08-01T06:22:04.717Z,21.88
2022-08-01T06:24:32.349Z,21.99
2022-08-01T06:26:59.760Z,22.06
2022-08-01T06:29:27.172Z,21.94
2022-08-01T06:31:58.759Z,21.94
2022-08-01T06:34:27.599Z,21.87
2022-08-01T06:36:55.003Z,22.00
2022-08-01T06:39:22.484Z,22.12
2022-08-01T06:41:49.945Z,22.07
2022-08-01T06:44:17.380Z,22.13
2022-08-01T06:46:45.132Z,22.06
2022-08-01T06:49:12.635Z,22.02
2022-08-01T06:51:41.559Z,22.14
2022-08-01T06:54:08.970Z,22.23
2022-08-01T06:56:36.435Z,22.21
2022-08-01T06:59:03.961Z,21.88
2022-08-01T07:01:35.173Z,21.66
2022-08-01T07:04:03.448Z,21.58
2022-08-01T07:06:31.230Z,21.64
2022-08-01T07:09:08.267Z,21.72
2022-08-01T07:11:36.986Z,21.11
2022-08-01T07:14:04.477Z,20.71
2022-08-01T07:16:31.944Z,20.71
2022-08-01T07:18:59.348Z,20.57
2022-08-01T07:21:40.630Z,20.55
2022-08-01T07:24:12.948Z,20.68
2022-08-01T07:26:41.308Z,20.64
2022-08-01T07:29:20.430Z,20.67
2022-08-01T07:31:47.873Z,20.63
2022-08-01T07:34:15.266Z,20.68
2022-08-01T07:36:42.670Z,20.85
2022-08-01T07:39:11.446Z,20.83
2022-08-01T07:41:53.412Z,20.98
2022-08-01T07:44:28.355Z,21.16
2022-08-01T07:46:56.803Z,20.91
2022-08-01T07:49:24.344Z,20.86
2022-08-01T07:52:04.010Z,21.04
2022-08-01T07:54:40.490Z,21.60
2022-08-01T07:57:08.029Z,22.01
2022-08-01T07:59:35.927Z,22.12
2022-08-01T08:02:03.631Z,21.91
2022-08-01T08:04:31.545Z,22.38
2022-08-01T08:06:59.020Z,22.50
2022-08-01T08:09:26.417Z,22.53
2022-08-01T08:11:55.160Z,22.61
2022-08-01T08:14:23.705Z,22.50
2022-08-01T08:17:00.083Z,22.55
2022-08-01T08:19:37.359Z,22.44
2022-08-01T08:22:06.668Z,22.66
2022-08-01T08:24:34.344Z,22.85
2022-08-01T08:27:03.647Z,22.83
2022-08-01T08:29:33.319Z,23.13
2022-08-01T08:32:01.656Z,23.70
2022-08-01T08:34:30.657Z,23.87
2022-08-01T08:36:59.990Z,23.69
2022-08-01T08:39:30.409Z,24.04
2022-08-01T08:41:59.570Z,24.06
2022-08-01T08:44:28.372Z,23.31
2022-08-01T08:46:59.642Z,22.93
2022-08-01T08:49:36.253Z,22.96
2022-08-01T08:52:09.010Z,22.96
2022-08-01T08:54:38.882Z,22.83
2022-08-01T08:57:07.854Z,23.41
2022-08-01T08:59:36.751Z,23.89
2022-08-01T09:02:07.922Z,24.17
2022-08-01T09:04:36.046Z,24.29
2022-08-01T09:07:05.886Z,24.35
2022-08-01T09:09:33.815Z,24.54
2022-08-01T09:12:01.247Z,24.62
2022-08-01T09:14:31.267Z,24.53
2022-08-01T09:17:07.523Z,24.43
2022-08-01T09:19:41.438Z,24.38
2022-08-01T09:22:10.958Z,24.53
2022-08-01T09:24:40.051Z,24.46
2022-08-01T09:27:19.865Z,24.43
2022-08-01T09:29:49.850Z,24.83
2022-08-01T09:32:34.750Z,25.03
2022-08-01T09:35:30.965Z,24.92
2022-08-01T09:38:19.313Z,25.00
2022-08-01T09:40:55.047Z,25.36
2022-08-01T09:43:25.254Z,25.48
2022-08-01T09:45:55.262Z,25.67
2022-08-01T09:48:27.993Z,25.66
2022-08-01T09:51:04.169Z,25.37
2022-08-01T09:53:50.954Z,25.42
2022-08-01T09:56:19.195Z,25.84
2022-08-01T09:59:00.965Z,26.49
2022-08-01T10:01:35.946Z,26.45
2022-08-01T10:04:09.841Z,26.23
2022-08-01T10:06:38.435Z,25.89
2022-08-01T10:09:06.100Z,25.64
2022-08-01T10:11:36.555Z,25.83
2022-08-01T10:14:05.627Z,25.81
2022-08-01T10:16:35.615Z,26.05
2022-08-01T10:19:06.906Z,25.94
2022-08-01T10:21:58.381Z,26.05
2022-08-01T10:24:27.959Z,26.10
2022-08-01T10:27:05.970Z,26.38
2022-08-01T10:29:46.011Z,26.30
2022-08-01T10:32:14.941Z,26.17
2022-08-01T10:34:44.860Z,25.97
2022-08-01T10:37:14.959Z,25.94
2022-08-01T10:39:43.271Z,25.95
2022-08-01T10:42:15.765Z,25.95
2022-08-01T10:44:47.145Z,25.80
2022-08-01T10:47:23.274Z,25.78
2022-08-01T10:50:03.647Z,25.98
2022-08-01T10:52:36.540Z,25.84
2022-08-01T10:55:10.274Z,25.78
2022-08-01T10:57:52.570Z,25.91
2022-08-01T11:00:21.428Z,25.80
2022-08-01T11:03:01.466Z,26.11
2022-08-01T11:05:32.291Z,25.72
2022-08-01T11:08:05.033Z,25.92
2022-08-01T11:10:39.825Z,25.91
2022-08-01T11:13:08.822Z,26.52
2022-08-01T11:15:36.853Z,26.77
2022-08-01T11:18:33.783Z,27.10
2022-08-01T11:21:56.274Z,27.29
2022-08-01T11:23:54.420Z,27.51
2022-08-01T11:26:29.342Z,27.85
2022-08-01T11:29:22.007Z,27.70
2022-08-01T11:31:51.081Z,27.70
2022-08-01T11:34:18.582Z,28.20
2022-08-01T11:37:01.686Z,28.47
2022-08-01T11:39:36.800Z,27.68
2022-08-01T11:42:20.816Z,28.02
2022-08-01T11:44:52.390Z,27.49
2022-08-01T11:47:21.251Z,26.85
2022-08-01T11:49:51.684Z,26.54
2022-08-01T11:52:25.416Z,25.90
2022-08-01T11:54:56.170Z,25.14
2022-08-01T11:57:34.292Z,24.36
2022-08-01T12:00:08.783Z,23.55
2022-08-01T12:02:37.125Z,23.47
2022-08-01T12:05:08.401Z,23.46
2022-08-01T12:07:40.585Z,23.81
2022-08-01T12:10:10.998Z,24.05
2022-08-01T12:12:43.613Z,24.12
2022-08-01T12:15:12.448Z,24.46
2022-08-01T12:17:46.973Z,25.14
2022-08-01T12:20:31.238Z,25.38
2022-08-01T12:23:00.883Z,25.79
2022-08-01T12:25:29.979Z,26.33
2022-08-01T12:28:01.973Z,26.86
2022-08-01T12:30:31.646Z,27.08
2022-08-01T12:32:59.900Z,26.53
2022-08-01T12:35:29.146Z,26.40
2022-08-01T12:37:58.406Z,25.90
2022-08-01T12:40:28.697Z,25.82
2022-08-01T12:42:58.481Z,25.64
2022-08-01T12:45:27.659Z,25.71
2022-08-01T12:47:58.479Z,25.94
2022-08-01T12:50:29.127Z,26.21
2022-08-01T12:52:56.796Z,26.47
2022-08-01T12:55:34.246Z,26.67
2022-08-01T12:58:15.284Z,26.21
2022-08-01T13:00:45.459Z,26.50
2022-08-01T13:03:15.222Z,26.21
2022-08-01T13:05:44.829Z,26.39
2022-08-01T13:08:13.434Z,26.91
2022-08-01T13:10:42.097Z,27.40
2022-08-01T13:13:11.463Z,27.35
2022-08-01T13:15:49.834Z,27.19
2022-08-01T13:18:27.339Z,27.01
2022-08-01T13:21:10.445Z,27.48
2022-08-01T13:24:03.407Z,27.81
2022-08-01T13:26:39.719Z,27.76
2022-08-01T13:29:10.191Z,27.54
2022-08-01T13:31:39.276Z,27.52
2022-08-01T13:34:07.422Z,27.36
2022-08-01T13:36:35.045Z,27.57
2022-08-01T13:39:20.414Z,27.73
2022-08-01T13:41:48.550Z,27.51
2022-08-01T13:44:17.390Z,27.28
2022-08-01T13:46:49.278Z,27.18
2022-08-01T13:49:17.698Z,27.42
2022-08-01T13:51:47.266Z,27.70
2022-08-01T13:54:14.711Z,27.83
2022-08-01T13:56:42.593Z,27.63
2022-08-01T13:59:09.991Z,27.78
2022-08-01T14:01:38.849Z,27.76
2022-08-01T14:04:06.421Z,27.54
2022-08-01T14:06:35.899Z,27.06
2022-08-01T14:09:03.827Z,27.47
2022-08-01T14:11:46.198Z,27.65
2022-08-01T14:14:13.850Z,27.80
2022-08-01T14:16:45.902Z,27.80
2022-08-01T14:19:13.517Z,27.82
2022-08-01T14:21:40.923Z,27.68
2022-08-01T14:24:09.281Z,27.74
2022-08-01T14:26:36.813Z,27.75
2022-08-01T14:29:04.370Z,27.83
2022-08-01T14:31:34.338Z,27.39
2022-08-01T14:34:03.880Z,27.18
2022-08-01T14:36:32.534Z,27.41
2022-08-01T14:39:05.943Z,27.43
2022-08-01T14:41:34.644Z,27.43
2022-08-01T14:44:02.430Z,27.73
2022-08-01T14:46:29.878Z,27.43
2022-08-01T14:48:59.150Z,27.56
2022-08-01T14:51:28.347Z,27.55
2022-08-01T14:53:56.644Z,27.36
2022-08-01T14:56:24.774Z,27.41
2022-08-01T14:58:52.180Z,27.14
2022-08-01T15:01:19.721Z,27.16
2022-08-01T15:03:48.846Z,26.69
2022-08-01T15:06:16.291Z,26.72
2022-08-01T15:08:45.439Z,26.71
2022-08-01T15:11:12.955Z,26.70
2022-08-01T15:13:42.583Z,26.93
2022-08-01T15:16:11.985Z,26.99
2022-08-01T15:18:39.600Z,27.10
2022-08-01T15:21:07.165Z,27.07
2022-08-01T15:23:34.570Z,27.08
2022-08-01T15:26:03.329Z,26.99
2022-08-01T15:28:30.762Z,26.78
2022-08-01T15:30:59.714Z,26.56
2022-08-01T15:33:27.131Z,26.58
2022-08-01T15:35:54.552Z,26.84
2022-08-01T15:38:22.616Z,26.94
2022-08-01T15:40:50.128Z,27.04
2022-08-01T15:43:18.873Z,26.91
2022-08-01T15:45:48.233Z,26.75
2022-08-01T15:48:16.564Z,26.81
2022-08-01T15:50:44.003Z,26.49
2022-08-01T15:53:11.540Z,26.58
2022-08-01T15:55:40.027Z,26.40
2022-08-01T15:58:08.185Z,26.50
2022-08-01T16:00:40.620Z,26.37
2022-08-01T16:03:10.054Z,26.30
2022-08-01T16:05:43.147Z,26.04
2022-08-01T16:08:11.838Z,26.16
2022-08-01T16:10:39.306Z,26.05
2022-08-01T16:13:07.484Z,26.17
2022-08-01T16:15:36.563Z,26.17
2022-08-01T16:18:06.188Z,26.34
2022-08-01T16:20:34.019Z,26.43
2022-08-01T16:23:01.486Z,26.42
2022-08-01T16:25:28.901Z,26.59
2022-08-01T16:27:56.344Z,26.46
2022-08-01T16:30:24.007Z,26.53
2022-08-01T16:32:52.482Z,26.61
2022-08-01T16:35:22.609Z,26.72
2022-08-01T16:37:51.921Z,26.74
2022-08-01T16:40:19.350Z,26.71
2022-08-01T16:42:46.759Z,26.76
2022-08-01T16:45:15.508Z,26.61
2022-08-01T16:47:43.456Z,26.37
2022-08-01T16:50:10.867Z,26.30
2022-08-01T16:52:41.953Z,26.36
2022-08-01T16:55:10.978Z,26.45
2022-08-01T16:57:38.691Z,26.28
2022-08-01T17:00:08.114Z,26.21
2022-08-01T17:02:35.867Z,26.05
2022-08-01T17:05:08.572Z,26.02
2022-08-01T17:07:42.003Z,25.83
2022-08-01T17:10:11.661Z,25.92
2022-08-01T17:12:39.459Z,25.75
2022-08-01T17:15:08.205Z,25.76
2022-08-01T17:17:35.809Z,25.67
2022-08-01T17:20:03.332Z,25.70
2022-08-01T17:22:30.782Z,25.49
2022-08-01T17:24:59.519Z,25.48
2022-08-01T17:27:27.027Z,25.60
2022-08-01T17:29:54.432Z,25.52
2022-08-01T17:32:21.843Z,25.57
2022-08-01T17:34:49.990Z,25.62
2022-08-01T17:37:17.386Z,25.50
2022-08-01T17:39:44.865Z,25.59
2022-08-01T17:42:13.719Z,25.52
2022-08-01T17:44:41.588Z,25.52
2022-08-01T17:47:24.232Z,25.41
2022-08-01T17:50:03.812Z,25.44
2022-08-01T17:52:32.077Z,25.45
2022-08-01T17:55:00.068Z,25.18
2022-08-01T17:57:30.750Z,25.07
2022-08-01T17:59:58.857Z,25.05
2022-08-01T18:02:27.158Z,24.98
2022-08-01T18:04:54.605Z,24.88
2022-08-01T18:08:00.644Z,24.91
2022-08-01T18:10:11.642Z,24.99
2022-08-01T18:12:41.619Z,24.90
2022-08-01T18:15:09.884Z,24.83
2022-08-01T18:17:42.653Z,24.89
2022-08-01T18:20:11.517Z,24.89
2022-08-01T18:22:39.441Z,24.84
2022-08-01T18:25:08.873Z,24.66
2022-08-01T18:28:18.976Z,24.51
2022-08-01T18:30:28.884Z,24.45
2022-08-01T18:32:56.835Z,24.35
2022-08-01T18:35:33.048Z,24.30
2022-08-01T18:38:12.279Z,24.50
2022-08-01T18:40:41.306Z,24.21
2022-08-01T18:43:08.887Z,24.37
2022-08-01T18:45:42.597Z,24.33
2022-08-01T18:48:10.586Z,24.13
2022-08-01T18:50:38.389Z,24.01
2022-08-01T18:53:05.934Z,23.87
2022-08-01T18:55:33.350Z,24.08
2022-08-01T18:58:00.770Z,23.94
2022-08-01T19:00:28.438Z,23.89
2022-08-01T19:02:57.224Z,23.90
2022-08-01T19:05:24.660Z,23.71
2022-08-01T19:08:06.616Z,23.58
2022-08-01T19:10:35.016Z,23.54
2022-08-01T19:13:02.916Z,23.49
2022-08-01T19:15:30.534Z,23.53
2022-08-01T19:17:59.278Z,23.50
2022-08-01T19:20:26.970Z,23.31
2022-08-01T19:22:54.462Z,23.38
2022-08-01T19:25:22.635Z,23.27
2022-08-01T19:27:51.288Z,23.47
2022-08-01T19:30:19.925Z,23.20
2022-08-01T19:32:49.205Z,23.00
2022-08-01T19:35:17.961Z,22.89
2022-08-01T19:37:47.611Z,22.95
2022-08-01T19:40:26.622Z,22.71
2022-08-01T19:42:56.854Z,22.73
2022-08-01T19:45:24.694Z,22.89
2022-08-01T19:47:56.720Z,22.80
2022-08-01T19:50:26.588Z,22.70
2022-08-01T19:52:55.986Z,22.56
2022-08-01T19:55:25.228Z,22.29
2022-08-01T20:00:42.657Z,22.11
2022-08-01T20:03:11.048Z,22.02
2022-08-01T20:05:40.890Z,22.04
2022-08-01T20:08:08.927Z,22.00
2022-08-01T20:10:38.360Z,21.62
2022-08-01T20:13:06.202Z,21.72
2022-08-01T20:15:33.604Z,21.67
2022-08-01T20:18:01.447Z,21.62
2022-08-01T20:20:28.916Z,21.60
2022-08-01T20:22:58.968Z,21.41
2022-08-01T20:25:39.530Z,21.20
2022-08-01T20:28:10.646Z,21.16
2022-08-01T20:30:38.403Z,21.14
2022-08-01T20:33:07.003Z,21.18
2022-08-01T20:35:51.721Z,21.23
2022-08-01T20:38:32.531Z,21.24
2022-08-01T20:41:02.731Z,21.27
2022-08-01T20:43:30.824Z,21.10
2022-08-01T20:45:58.913Z,21.08
2022-08-01T20:48:27.936Z,20.99
2022-08-01T20:51:13.337Z,20.51
2022-08-01T20:53:43.636Z,20.62
2022-08-01T20:56:16.806Z,20.75
2022-08-01T20:58:58.583Z,20.47
2022-08-01T21:01:29.469Z,20.61
2022-08-01T21:04:09.643Z,20.64
2022-08-01T21:06:38.834Z,20.76
2022-08-01T21:09:07.964Z,20.94
2022-08-01T21:11:42.766Z,20.84
2022-08-01T21:14:13.037Z,20.74
2022-08-01T21:16:44.570Z,20.73
2022-08-01T21:19:19.951Z,20.56
2022-08-01T21:21:52.131Z,20.38
2022-08-01T21:24:25.478Z,20.31
2022-08-01T21:26:53.491Z,20.22
2022-08-01T21:29:22.344Z,20.69
2022-08-01T21:32:11.360Z,20.45
2022-08-01T21:34:40.066Z,20.73
2022-08-01T21:37:09.187Z,20.67
2022-08-01T21:39:39.132Z,20.48
2022-08-01T21:42:09.409Z,20.78
2022-08-01T21:44:39.275Z,20.61
2022-08-01T21:47:11.969Z,20.54
2022-08-01T21:49:40.324Z,20.60
2022-08-01T21:52:12.033Z,20.40
2022-08-01T21:54:53.963Z,20.12
2022-08-01T21:57:30.218Z,20.23
2022-08-01T22:00:07.469Z,19.92
2022-08-01T22:02:39.014Z,20.01
2022-08-01T22:05:09.039Z,20.14
2022-08-01T22:07:40.318Z,20.09
2022-08-01T22:10:13.764Z,20.19
2022-08-01T22:12:41.236Z,20.30
2022-08-01T22:15:09.780Z,20.25
2022-08-01T22:17:37.494Z,20.05
2022-08-01T22:20:06.328Z,20.08
2022-08-01T22:22:51.131Z,19.90
2022-08-01T22:25:21.415Z,20.06
2022-08-01T22:28:08.923Z,19.99
2022-08-01T22:30:41.526Z,19.68
2022-08-01T22:33:17.240Z,19.60
2022-08-01T22:35:46.189Z,19.73
2022-08-01T22:38:13.753Z,19.85
2022-08-01T22:40:48.923Z,19.81
2022-08-01T22:43:25.558Z,19.81
2022-08-01T22:46:01.624Z,19.81
2022-08-01T22:48:36.795Z,19.73
2022-08-01T22:51:08.782Z,19.66
2022-08-01T22:53:46.785Z,19.83
2022-08-01T22:56:15.793Z,19.83
2022-08-01T22:58:44.653Z,19.79
2022-08-01T23:01:21.153Z,19.36
2022-08-01T23:03:51.758Z,19.02
2022-08-01T23:06:23.817Z,19.17
2022-08-01T23:08:51.463Z,19.36
2022-08-01T23:11:23.240Z,19.51
2022-08-01T23:13:52.984Z,19.36
2022-08-01T23:16:21.255Z,19.42
2022-08-01T23:18:50.176Z,19.42
2022-08-01T23:21:19.229Z,19.37
2022-08-01T23:23:48.020Z,19.18
2022-08-01T23:26:16.061Z,19.11
2022-08-01T23:28:46.569Z,19.01
2022-08-01T23:31:14.962Z,19.11
2022-08-01T23:33:42.402Z,18.99
2022-08-01T23:36:09.891Z,19.11
2022-08-01T23:38:37.372Z,18.81
2022-08-01T23:41:14.698Z,18.66
2022-08-01T23:43:52.387Z,18.89
2022-08-01T23:46:21.377Z,18.79
2022-08-01T23:48:48.885Z,18.91
2022-08-01T23:51:24.334Z,18.66
2022-08-01T23:53:51.991Z,18.50
2022-08-01T23:56:25.396Z,18.29
2022-08-01T23:58:54.316Z,18.39
